Terminal Aerodrome Forecast
Issued by NWS

Home | Current Version | Previous Version | Text Only | Print | Product List | Glossary On
Versions: 1 2 3 4 5 6 7 8 9 10 11 12 13 14 15 16 17 18 19 20 21
328
FTUS43 KICT 281132
TAFRSL
TAF
KRSL 281132Z 2812/2912 32010KT P6SM BKN110
     FM281800 02006KT P6SM SCT200
     FM282100 04008KT P6SM BKN200
     FM290500 05011KT P6SM VCSH SCT020 OVC070
      TEMPO 2910/2912 5SM SHRA BKN020=

USA.gov is the U.S. government's official web portal to all federal, state and local government web resources and services.